🇳🇱 VeloStatistics

👤 Yuriy Agarkov

NationaliteitUKR
Geboortedatum1987-01-08
Overlijdensdatum -
Lengte / Gewicht?? cm / ?? kg
Profzeges0
Profzeges 20260
Wedstrijddagen126

🚴 Ploegenhistorie

Geen ploegen gevonden.

🏆 Resultaten (65)

Datum Pos Wedstrijd UCI Ploeg
2015-06-26 13 2015 | N.K. Oekraïne I.T.T., UKR (26.6) NCT -
2014-10-28 87 2014 | Tour of Hainan, CHN (28.10) 2.HC -
2014-07-25 9 2014 | Kosice - Miskolc, HUN (25.7) 1.2 -
2014-07-20 91 2014 | Sibiu Cycling Tour, ROU (20.7) 2.2 -
2014-06-27 8 2014 | N.K. Oekraïne I.T.T., UKR (27.6) NCT -
2014-06-15 3 2014 | G.P. Udmurtskaya Pravda, RUS (15.6) 2.2 -
2014-06-15 8 2014 | G.P. Udmurtskaya Pravda, RUS | Rit 5 (15.6) 2.2 -
2014-06-14 2 2014 | G.P. Udmurtskaya Pravda, RUS | Rit 4 (14.6) 2.2 -
2014-05-30 10 2014 | Race Horizon Park I, UKR (30.5) 1.2 -
2014-05-06 2 2014 | Five Rings of Moscow, RUS | Rit 1 (6.5) 2.2 -
2014-04-17 10 2014 | G.P. Adygeya, RUS | Rit 2 (17.4) 2.2 -
2013-08-25 13 2013 | Baltic Chain Tour (25.8) 2.2 -
2013-08-10 3 2013 | Tour of Szekerland, ROU | Rit 4 (10.8) 2.2 -
2013-08-08 5 2013 | Tour of Szekerland, ROU | Rit 1 (8.8) 2.2 -
2013-07-14 73 2013 | Sibiu Cycling Tour, ROU (14.7) 2.1 -
2013-06-09 37 2013 | Jurmala G.P., LAT (9.6) 1.1 -
2013-06-08 49 2013 | Riga G.P., LAT (8.6) 1.1 -
2013-05-01 3 2013 | Mayor Cup, RUS (1.5) 1.2 -
2013-04-14 13 2013 | G.P. Donetsk, UKR (14.4) 1.2 -
2012-04-15 8 2012 | G.P. Donetsk, UKR (15.4) 1.2 -
2012-04-05 8 2012 | G.P. of Sochi, RUS | Rit 2 (5.4) 2.2 -
2011-07-02 27 2011 | Course de Solidarnosc et des Champions Olympiques, POL (2.7) 2.1 -
2011-05-09 9 2011 | Five Rings of Moscow, RUS (9.5) 2.2 -
2011-05-05 4 2011 | Five Rings of Moscow, RUS | Rit 0 (5.5) 2.2 -
2011-04-22 7 2011 | G.P. Adygeya, RUS | Rit 3 (22.4) 2.2 -
2011-04-21 2 2011 | G.P. Adygeya, RUS | Rit 2 (21.4) 2.2 -
2011-04-17 1 2011 | G.P. Donetsk, UKR (17.4) 1.2 -
2010-09-17 48 2010 | Tour de la Somme, FRA (17.9) 1.1 -
2010-07-25 1 2010 | Tour of Szekerland, ROU | Rit 5 (25.7) 2.2 -
2010-07-23 10 2010 | Tour of Szekerland, ROU | Rit 2 (23.7) 2.2 -
2010-07-04 48 2010 | Course de Solidarnosc et des Champions Olympiques, POL (4.7) 2.1 -
2010-06-27 12 2010 | N.K. Oekraïne, UKR (27.6) NC -
2010-06-25 8 2010 | N.K. Oekraïne I.T.T., UKR (25.6) NCT -
2010-06-05 4 2010 | Ringerike G.P., NOR | Rit 4 (5.6) 2.2 -
2010-05-30 12 2010 | Tour des Fjords, NOR (30.5) 1.2 -
2010-05-01 42 2010 | G.P. Herning, DEN (1.5) 1.1 -
2010-04-18 17 2010 | G.P. Donetsk, UKR (18.4) 1.2 -
2009-08-14 17 2009 | Puchar Ministra Obrony Narodowej, POL (14.8) 1.2 -
2009-08-02 94 2009 | Danmark Rundt, DEN (2.8) 2.HC -
2009-06-01 24 2009 | Neussen Classic - Rund um die Braunkohle, DUI (1.6) 1.1 -
2009-05-29 36 2009 | EOS Tallinn G.P., EST (29.5) 1.1 -
2009-05-10 10 2009 | Five Rings of Moscow, RUS | Rit 5 (10.5) 2.2 -
2009-05-07 6 2009 | Five Rings of Moscow, RUS | Rit 2 (7.5) 2.2 -
2009-05-06 4 2009 | Five Rings of Moscow, RUS | Rit 1 (6.5) 2.2 -
2009-05-03 4 2009 | Memorial Oleg Dyachenko, RUS (3.5) 1.2 -
2009-04-18 14 2009 | ZLM Tour, NED (18.4) 1.NC -
2009-04-15 2 2009 | La Côte Picarde, FRA (15.4) 1.NC -
2009-04-13 32 2009 | Rund um Köln, DUI (13.4) 1.1 -
2009-04-11 23 2009 | Ronde van Vlaanderen U23, BEL (11.4) 1.NC -
2009-03-22 16 2009 | La Roue Tourangelle, FRA (22.3) 1.2 -